Time;durP1;ratioP1;P1;durP2;ratioP2;P2;SDS_P1;SDS_P2;PMS_P1;PMS_P2;Temp;Humidity;BMP_temperature;BMP_pressure;BME280_temperature;BME280_humidity;BME280_pressure;Samples;Min_cycle;Max_cycle;Signal;HPM_P1;HPM_P2
2023/01/08 00:00:04;;;;;;;;;;;;;;;21.89;42.63;99482.88;7250829;19;152941;-55
2023/01/08 00:02:31;;;;;;;;;;;;;;;21.88;42.63;99478.41;7252903;19;153761;-55
2023/01/08 00:04:58;;;;;;;;;;;;;;;21.88;42.64;99484.84;7249919;19;153172;-55
2023/01/08 00:07:24;;;;;;;;;;;;;;;21.88;42.76;99486.84;7252481;19;152784;-55
2023/01/08 00:09:53;;;;;;;;;;;;;;;21.88;42.34;99486.84;7252704;19;154419;-55
2023/01/08 00:12:20;;;;;;;;;;;;;;;21.87;42.82;99485.19;7251003;19;153814;-55
2023/01/08 00:14:47;;;;;;;;;;;;;;;21.86;42.62;99478.75;7252576;19;153665;-54
2023/01/08 00:17:13;;;;;;;;;;;;;;;21.86;42.77;99477.94;7249364;19;154879;-55
2023/01/08 00:19:41;;;;;;;;;;;;;;;21.85;42.63;99473.50;7256433;19;153534;-55
2023/01/08 00:22:08;;;;;;;;;;;;;;;21.83;42.96;99479.47;7248149;19;153851;-55
2023/01/08 00:24:35;;;;;;;;;;;;;;;21.82;42.81;99471.38;7247561;19;153389;-55
2023/01/08 00:27:02;;;;;;;;;;;;;;;21.81;42.73;99458.47;7251503;19;154084;-55
2023/01/08 00:29:29;;;;;;;;;;;;;;;21.80;42.63;99457.69;7248860;19;154974;-55
2023/01/08 00:31:56;;;;;;;;;;;;;;;21.78;42.61;99462.84;7251728;19;154565;-55
2023/01/08 00:34:22;;;;;;;;;;;;;;;21.76;42.45;99451.09;7248200;19;153468;-56
2023/01/08 00:36:49;;;;;;;;;;;;;;;21.73;42.60;99451.81;7247163;19;153197;-55
2023/01/08 00:39:16;;;;;;;;;;;;;;;21.72;42.48;99455.81;7249702;19;152948;-55
2023/01/08 00:41:44;;;;;;;;;;;;;;;21.69;42.73;99465.78;7252032;19;153409;-55
2023/01/08 00:44:10;;;;;;;;;;;;;;;21.67;42.61;99456.88;7249624;19;154144;-55
2023/01/08 00:46:37;;;;;;;;;;;;;;;21.64;42.76;99457.56;7249712;19;153343;-55
2023/01/08 00:49:04;;;;;;;;;;;;;;;21.61;42.47;99455.47;7248449;19;153551;-55
2023/01/08 00:51:31;;;;;;;;;;;;;;;21.60;42.30;99453.00;7246238;19;152640;-55
2023/01/08 00:53:57;;;;;;;;;;;;;;;21.56;42.65;99447.28;7248376;19;154487;-55
2023/01/08 00:56:24;;;;;;;;;;;;;;;21.55;42.47;99450.44;7246934;19;153470;-55
2023/01/08 00:58:54;;;;;;;;;;;;;;;21.52;42.31;99434.28;7249845;19;153971;-55
2023/01/08 01:01:21;;;;;;;;;;;;;;;21.49;42.46;99441.41;7249010;19;153863;-55
2023/01/08 01:03:48;;;;;;;;;;;;;;;21.46;42.73;99447.75;7256480;19;154346;-55
2023/01/08 01:06:14;;;;;;;;;;;;;;;21.45;42.71;99445.28;7246954;19;153462;-55
2023/01/08 01:08:43;;;;;;;;;;;;;;;21.42;42.42;99449.63;7247033;19;153995;-55
2023/01/08 01:11:12;;;;;;;;;;;;;;;21.39;42.49;99447.53;7249421;19;152853;-55
2023/01/08 01:13:39;;;;;;;;;;;;;;;21.36;42.84;99439.78;7248207;19;153548;-55
2023/01/08 01:16:06;;;;;;;;;;;;;;;21.34;42.71;99444.13;7251277;19;154026;-55
2023/01/08 01:18:33;;;;;;;;;;;;;;;21.30;42.54;99436.38;7255528;19;153957;-55
2023/01/08 01:21:00;;;;;;;;;;;;;;;21.28;43.01;99433.09;7251279;19;153706;-55
2023/01/08 01:23:27;;;;;;;;;;;;;;;21.26;42.72;99429.81;7254628;19;154102;-55
2023/01/08 01:25:54;;;;;;;;;;;;;;;21.22;43.18;99423.25;7261078;19;153174;-55
2023/01/08 01:28:21;;;;;;;;;;;;;;;21.20;43.19;99425.63;7255251;19;154849;-55
2023/01/08 01:30:52;;;;;;;;;;;;;;;21.17;43.18;99426.31;7256086;19;154294;-55
2023/01/08 01:33:19;;;;;;;;;;;;;;;21.16;43.29;99427.50;7256020;19;153762;-55
2023/01/08 01:35:46;;;;;;;;;;;;;;;21.14;43.32;99420.56;7252894;19;153633;-55
2023/01/08 01:38:13;;;;;;;;;;;;;;;21.12;43.21;99425.69;7256744;19;155002;-55
2023/01/08 01:40:41;;;;;;;;;;;;;;;21.09;43.34;99421.59;7254028;19;153944;-55
2023/01/08 01:43:12;;;;;;;;;;;;;;;21.07;43.34;99423.94;7254102;19;156106;-55
2023/01/08 01:45:39;;;;;;;;;;;;;;;21.05;43.52;99425.44;7255502;19;152895;-55
2023/01/08 01:48:10;;;;;;;;;;;;;;;21.02;43.13;99410.13;7262454;19;153318;-55
2023/01/08 01:50:46;;;;;;;;;;;;;;;20.99;43.32;99410.81;7253551;19;154411;-55
2023/01/08 01:53:17;;;;;;;;;;;;;;;20.97;43.37;99417.94;7253809;19;153605;-55
2023/01/08 01:55:44;;;;;;;;;;;;;;;20.94;43.46;99422.25;7248423;19;153615;-55
2023/01/08 01:58:13;;;;;;;;;;;;;;;20.90;43.57;99418.50;7257345;19;152857;-55
2023/01/08 02:00:40;;;;;;;;;;;;;;;20.87;43.32;99413.59;7253403;19;152069;-55
2023/01/08 02:03:08;;;;;;;;;;;;;;;20.84;43.57;99420.75;7254164;19;153621;-55
2023/01/08 02:05:45;;;;;;;;;;;;;;;20.81;43.43;99420.59;7254242;19;153564;-55
2023/01/08 02:08:14;;;;;;;;;;;;;;;20.79;43.66;99418.16;7259284;19;155896;-55
2023/01/08 02:10:48;;;;;;;;;;;;;;;20.76;43.74;99424.44;7254582;19;153924;-55
2023/01/08 02:13:19;;;;;;;;;;;;;;;20.73;43.60;99425.16;7251143;19;154401;-55
2023/01/08 02:15:52;;;;;;;;;;;;;;;20.71;44.17;99421.06;7251753;19;153436;-55
2023/01/08 02:18:24;;;;;;;;;;;;;;;20.67;44.06;99420.91;7254094;19;154481;-55
2023/01/08 02:21:00;;;;;;;;;;;;;;;20.65;43.98;99426.06;7253451;19;154470;-55
2023/01/08 02:23:36;;;;;;;;;;;;;;;20.63;44.38;99421.94;7253983;19;153753;-55
2023/01/08 02:26:06;;;;;;;;;;;;;;;20.59;44.06;99423.81;7255293;19;153146;-55
2023/01/08 02:28:37;;;;;;;;;;;;;;;20.56;44.25;99435.75;7251876;19;153603;-55
2023/01/08 02:31:04;;;;;;;;;;;;;;;20.53;44.49;99436.44;7259273;19;154229;-55
2023/01/08 02:33:32;;;;;;;;;;;;;;;20.51;44.40;99438.75;7254288;19;154468;-55
2023/01/08 02:36:08;;;;;;;;;;;;;;;20.47;44.29;99427.41;7247919;19;155181;-55
2023/01/08 02:38:35;;;;;;;;;;;;;;;20.44;44.16;99439.34;7249392;19;154101;-55
2023/01/08 02:41:04;;;;;;;;;;;;;;;20.42;44.26;99447.25;7246731;19;153942;-55
2023/01/08 02:43:37;;;;;;;;;;;;;;;20.39;44.34;99451.59;7251170;19;154588;-55
2023/01/08 02:46:04;;;;;;;;;;;;;;;20.36;44.22;99455.06;7253814;19;152941;-55
2023/01/08 02:48:33;;;;;;;;;;;;;;;20.34;44.38;99457.41;7255097;19;154512;-55
2023/01/08 02:51:03;;;;;;;;;;;;;;;20.31;44.44;99430.03;7250067;19;153249;-55
2023/01/08 02:53:32;;;;;;;;;;;;;;;20.29;44.23;99432.34;7263108;19;152694;-55
2023/01/08 02:56:08;;;;;;;;;;;;;;;20.25;44.61;99424.94;7250497;19;153397;-56
2023/01/08 02:58:36;;;;;;;;;;;;;;;20.26;44.58;99437.81;7254969;19;153461;-56
2023/01/08 03:01:05;;;;;;;;;;;;;;;20.23;44.76;99419.69;7251835;19;153660;-55
2023/01/08 03:03:33;;;;;;;;;;;;;;;20.20;45.00;99419.53;7252323;19;153981;-54
2023/01/08 03:06:04;;;;;;;;;;;;;;;20.18;45.39;99427.47;7251249;19;153965;-54
2023/01/08 03:08:33;;;;;;;;;;;;;;;20.17;45.52;99414.63;7252056;19;153779;-54
2023/01/08 03:11:05;;;;;;;;;;;;;;;20.17;45.19;99407.00;7250978;19;153957;-54
2023/01/08 03:13:41;;;;;;;;;;;;;;;20.14;45.54;99413.31;7252046;19;152999;-54
2023/01/08 03:16:09;;;;;;;;;;;;;;;20.12;45.86;99398.03;7256970;19;153774;-54
2023/01/08 03:18:40;;;;;;;;;;;;;;;20.10;45.82;99401.16;7250296;19;154480;-54
2023/01/08 03:21:07;;;;;;;;;;;;;;;20.11;46.14;99404.78;7247652;19;153423;-54
2023/01/08 03:23:36;;;;;;;;;;;;;;;20.09;46.11;99405.13;7252554;19;154804;-57
2023/01/08 03:26:04;;;;;;;;;;;;;;;20.07;46.04;99395.41;7250964;19;151984;-54
2023/01/08 03:28:38;;;;;;;;;;;;;;;20.08;46.26;99391.47;7253025;19;153595;-54
2023/01/08 03:31:05;;;;;;;;;;;;;;;20.08;46.06;99391.47;7249641;19;153815;-54
2023/01/08 03:33:33;;;;;;;;;;;;;;;20.07;46.16;99392.63;7251973;19;153941;-54
2023/01/08 03:36:02;;;;;;;;;;;;;;;20.05;46.69;99404.16;7252847;19;153532;-54
2023/01/08 03:38:32;;;;;;;;;;;;;;;20.05;46.84;99392.94;7258460;19;154250;-54
2023/01/08 03:41:02;;;;;;;;;;;;;;;20.04;46.60;99410.09;7249461;19;154037;-54
2023/01/08 03:43:29;;;;;;;;;;;;;;;20.01;46.63;99408.81;7252657;19;153746;-54
2023/01/08 03:45:58;;;;;;;;;;;;;;;20.01;46.66;99408.00;7251323;19;154154;-54
2023/01/08 03:48:25;;;;;;;;;;;;;;;19.99;46.69;99391.50;7252787;19;153254;-54
2023/01/08 03:50:52;;;;;;;;;;;;;;;19.95;46.92;99394.19;7247116;19;153905;-54
2023/01/08 03:53:18;;;;;;;;;;;;;;;19.96;47.32;99398.63;7249295;19;152921;-54
2023/01/08 03:55:45;;;;;;;;;;;;;;;19.95;47.04;99390.56;7245842;19;154569;-54
2023/01/08 03:58:12;;;;;;;;;;;;;;;19.93;47.04;99395.69;7250668;19;156018;-54
2023/01/08 04:00:38;;;;;;;;;;;;;;;19.91;47.07;99386.78;7257315;19;153249;-54
2023/01/08 04:03:05;;;;;;;;;;;;;;;19.88;47.65;99393.91;7247771;19;154145;-54
2023/01/08 04:05:32;;;;;;;;;;;;;;;19.85;47.36;99391.00;7249240;19;153956;-54
2023/01/08 04:07:58;;;;;;;;;;;;;;;19.83;47.42;99394.13;7251024;19;154067;-54
2023/01/08 04:10:25;;;;;;;;;;;;;;;19.82;47.86;99391.66;7245175;19;156239;-54
2023/01/08 04:12:52;;;;;;;;;;;;;;;19.82;47.61;99389.69;7247469;19;152755;-54
2023/01/08 04:15:19;;;;;;;;;;;;;;;19.80;48.09;99389.22;7250848;19;154657;-54
2023/01/08 04:17:45;;;;;;;;;;;;;;;19.79;48.12;99415.59;7243911;19;152873;-54
2023/01/08 04:20:12;;;;;;;;;;;;;;;19.76;47.77;99447.06;7256336;19;153463;-54
2023/01/08 04:22:39;;;;;;;;;;;;;;;19.75;48.15;99431.44;7247968;19;154748;-54
2023/01/08 04:25:06;;;;;;;;;;;;;;;19.73;47.91;99419.75;7250737;19;154221;-54
2023/01/08 04:27:32;;;;;;;;;;;;;;;19.72;47.70;99425.69;7250482;19;153796;-54
2023/01/08 04:29:59;;;;;;;;;;;;;;;19.69;47.87;99418.78;7251334;19;156677;-56
2023/01/08 04:32:26;;;;;;;;;;;;;;;19.72;47.93;99412.50;7245170;19;152842;-55
2023/01/08 04:34:52;;;;;;;;;;;;;;;19.36;45.49;99420.59;7251270;19;153707;-54
2023/01/08 04:37:19;;;;;;;;;;;;;;;18.94;44.80;99414.84;7247294;19;153380;-54
2023/01/08 04:39:46;;;;;;;;;;;;;;;19.07;45.65;99413.84;7250610;19;153625;-55
2023/01/08 04:42:12;;;;;;;;;;;;;;;19.15;45.87;99406.56;7256842;19;153785;-55
2023/01/08 04:44:39;;;;;;;;;;;;;;;19.19;46.45;99398.28;7249071;19;153843;-54
2023/01/08 04:47:06;;;;;;;;;;;;;;;19.21;47.00;99401.59;7247890;19;154531;-54
2023/01/08 04:49:32;;;;;;;;;;;;;;;19.22;47.29;99394.81;7249053;19;155379;-54
2023/01/08 04:51:59;;;;;;;;;;;;;;;19.26;47.74;99391.00;7249532;19;152758;-54
2023/01/08 04:54:26;;;;;;;;;;;;;;;19.30;47.95;99377.16;7256561;19;153057;-55
2023/01/08 04:56:52;;;;;;;;;;;;;;;19.37;49.32;99377.44;7254649;19;154124;-55
2023/01/08 04:59:19;;;;;;;;;;;;;;;19.48;49.84;99387.97;7256754;19;153689;-57
2023/01/08 05:01:46;;;;;;;;;;;;;;;19.54;49.98;99394.97;7257691;19;153439;-58
2023/01/08 05:04:12;;;;;;;;;;;;;;;19.61;50.65;99393.63;7266949;19;153696;-58
2023/01/08 05:06:39;;;;;;;;;;;;;;;19.64;51.02;99388.16;7253056;19;152848;-58
2023/01/08 05:09:06;;;;;;;;;;;;;;;19.67;51.36;99376.25;7256234;19;153953;-58
2023/01/08 05:11:34;;;;;;;;;;;;;;;19.73;51.35;99376.88;7255894;19;152359;-58
2023/01/08 05:14:01;;;;;;;;;;;;;;;19.35;46.49;99374.97;7256549;19;152969;-57
2023/01/08 05:16:27;;;;;;;;;;;;;;;19.46;46.61;99367.03;7256004;19;153478;-57
2023/01/08 05:18:54;;;;;;;;;;;;;;;19.59;47.63;99365.94;7257227;19;152420;-57
2023/01/08 05:21:20;;;;;;;;;;;;;;;19.69;47.88;99350.72;7255072;19;154947;-57
2023/01/08 05:23:47;;;;;;;;;;;;;;;19.76;48.64;99353.81;7254646;19;154799;-57
2023/01/08 05:26:14;;;;;;;;;;;;;;;19.80;49.13;99347.19;7263338;19;153730;-57
2023/01/08 05:28:41;;;;;;;;;;;;;;;19.87;49.30;99341.00;7252449;19;153432;-57
2023/01/08 05:31:08;;;;;;;;;;;;;;;19.93;49.52;99340.47;7255052;19;152890;-57
2023/01/08 05:33:34;;;;;;;;;;;;;;;20.00;49.56;99334.28;7255325;19;153203;-57
2023/01/08 05:36:03;;;;;;;;;;;;;;;20.06;49.85;99323.69;7251057;19;154322;-57
2023/01/08 05:38:30;;;;;;;;;;;;;;;20.12;49.94;99313.91;7251816;19;153688;-57
2023/01/08 05:40:56;;;;;;;;;;;;;;;20.17;50.04;99317.28;7254445;19;155162;-57
2023/01/08 05:43:23;;;;;;;;;;;;;;;20.24;50.11;99308.31;7252762;19;153414;-57
2023/01/08 05:45:49;;;;;;;;;;;;;;;20.30;50.12;99309.78;7253931;19;153933;-57
2023/01/08 05:48:16;;;;;;;;;;;;;;;20.35;50.18;99310.34;7262030;19;154187;-57
2023/01/08 05:50:43;;;;;;;;;;;;;;;20.39;50.02;99302.91;7252981;19;154143;-57
2023/01/08 05:53:10;;;;;;;;;;;;;;;20.45;49.92;99300.69;7253922;19;153614;-57
2023/01/08 05:55:36;;;;;;;;;;;;;;;20.51;49.87;99299.28;7250709;19;155603;-57
2023/01/08 05:58:04;;;;;;;;;;;;;;;20.55;49.79;99310.63;7255334;19;154706;-57
2023/01/08 06:00:31;;;;;;;;;;;;;;;20.61;50.03;99312.88;7254304;19;152782;-57
2023/01/08 06:02:58;;;;;;;;;;;;;;;20.65;49.88;99316.63;7249487;19;154359;-57
2023/01/08 06:05:24;;;;;;;;;;;;;;;20.70;50.02;99319.19;7254106;19;153073;-57
2023/01/08 06:07:51;;;;;;;;;;;;;;;20.75;49.79;99327.41;7252664;19;153778;-56
2023/01/08 06:10:18;;;;;;;;;;;;;;;20.77;49.94;99325.03;7257246;19;153797;-57
2023/01/08 06:12:44;;;;;;;;;;;;;;;20.82;49.87;99324.00;7254520;19;153426;-57
2023/01/08 06:15:11;;;;;;;;;;;;;;;20.84;50.11;99319.69;7252962;19;153226;-57
2023/01/08 06:17:38;;;;;;;;;;;;;;;20.89;49.79;99320.63;7253715;19;154213;-57
2023/01/08 06:20:05;;;;;;;;;;;;;;;20.91;49.38;99324.69;7254907;19;153209;-57
2023/01/08 06:22:32;;;;;;;;;;;;;;;20.93;49.36;99322.38;7250864;19;153811;-57
2023/01/08 06:24:59;;;;;;;;;;;;;;;20.95;49.01;99320.00;7250750;19;153525;-57
2023/01/08 06:27:26;;;;;;;;;;;;;;;20.97;49.02;99311.25;7255466;19;155564;-57
2023/01/08 06:29:52;;;;;;;;;;;;;;;20.99;49.03;99317.31;7257719;19;154078;-57
2023/01/08 06:32:19;;;;;;;;;;;;;;;21.00;48.58;99321.78;7253551;19;155316;-57
2023/01/08 06:34:45;;;;;;;;;;;;;;;21.03;48.10;99321.09;7254179;19;154099;-57
2023/01/08 06:37:12;;;;;;;;;;;;;;;21.04;48.12;99303.03;7251931;19;152822;-57
2023/01/08 06:39:39;;;;;;;;;;;;;;;21.06;48.20;99303.53;7253611;19;153494;-57
2023/01/08 06:42:05;;;;;;;;;;;;;;;21.07;47.98;99306.00;7254936;19;154106;-57
2023/01/08 06:44:32;;;;;;;;;;;;;;;21.07;47.60;99302.38;7256462;19;154125;-57
2023/01/08 06:46:59;;;;;;;;;;;;;;;21.10;47.59;99293.22;7256932;19;153930;-57
2023/01/08 06:49:25;;;;;;;;;;;;;;;21.11;47.27;99301.31;7253742;19;153109;-57
2023/01/08 06:51:52;;;;;;;;;;;;;;;21.11;47.45;99304.13;7259133;19;153758;-57
2023/01/08 06:54:19;;;;;;;;;;;;;;;21.13;47.47;99295.34;7248401;19;153700;-57
2023/01/08 06:56:47;;;;;;;;;;;;;;;21.13;47.38;99290.56;7252454;19;153377;-57
2023/01/08 06:59:19;;;;;;;;;;;;;;;21.15;47.29;99293.03;7253438;19;153960;-57
2023/01/08 07:01:46;;;;;;;;;;;;;;;21.14;47.12;99283.78;7250472;19;155173;-57
2023/01/08 07:04:13;;;;;;;;;;;;;;;21.14;47.21;99291.38;7252451;19;154586;-57
2023/01/08 07:06:39;;;;;;;;;;;;;;;21.15;47.26;99293.03;7247554;19;152484;-57
2023/01/08 07:09:06;;;;;;;;;;;;;;;21.15;47.72;99287.41;7252414;19;154806;-57
2023/01/08 07:11:33;;;;;;;;;;;;;;;21.14;47.69;99288.56;7252813;19;152985;-58
2023/01/08 07:14:00;;;;;;;;;;;;;;;21.13;47.85;99287.75;7255432;19;155194;-57
2023/01/08 07:16:26;;;;;;;;;;;;;;;21.12;47.65;99297.31;7250533;19;152970;-57
2023/01/08 07:18:53;;;;;;;;;;;;;;;21.14;47.55;99289.38;7253943;19;154166;-57
2023/01/08 07:21:21;;;;;;;;;;;;;;;21.12;47.66;99296.50;7245137;19;154246;-57
2023/01/08 07:23:48;;;;;;;;;;;;;;;21.12;48.24;99293.72;7248293;19;151940;-58
2023/01/08 07:26:15;;;;;;;;;;;;;;;21.10;48.27;99293.22;7252500;19;155254;-57
2023/01/08 07:28:42;;;;;;;;;;;;;;;21.08;48.19;99292.75;7250243;19;153695;-57
2023/01/08 07:31:09;;;;;;;;;;;;;;;21.05;48.36;99297.09;7249779;19;153070;-58
2023/01/08 07:33:36;;;;;;;;;;;;;;;21.03;48.68;99287.41;7252699;19;154597;-57
2023/01/08 07:36:03;;;;;;;;;;;;;;;21.02;48.83;99277.31;7254963;19;153752;-57
2023/01/08 07:38:30;;;;;;;;;;;;;;;20.99;48.46;99278.00;7252464;19;153676;-57
2023/01/08 07:40:57;;;;;;;;;;;;;;;20.96;49.10;99275.91;7245750;19;153788;-57
2023/01/08 07:43:25;;;;;;;;;;;;;;;20.92;48.69;99278.63;7249365;19;152501;-57
2023/01/08 07:45:52;;;;;;;;;;;;;;;20.89;48.69;99273.72;7249177;19;153249;-57
2023/01/08 07:48:18;;;;;;;;;;;;;;;20.90;48.64;99280.13;7249343;19;154094;-57
2023/01/08 07:50:45;;;;;;;;;;;;;;;20.92;48.55;99260.94;7250053;19;153883;-57
2023/01/08 07:53:12;;;;;;;;;;;;;;;20.95;48.53;99266.66;7249668;19;153982;-57
2023/01/08 07:55:39;;;;;;;;;;;;;;;20.94;48.57;99267.84;7249464;19;154177;-57
2023/01/08 07:58:07;;;;;;;;;;;;;;;20.96;48.63;99264.69;7258918;19;154201;-57
2023/01/08 08:00:34;;;;;;;;;;;;;;;20.97;48.88;99263.53;7247904;19;154972;-57
2023/01/08 08:03:02;;;;;;;;;;;;;;;20.99;49.16;99259.19;7250343;19;153009;-57
2023/01/08 08:05:29;;;;;;;;;;;;;;;21.02;49.34;99266.09;7247276;19;153497;-57
2023/01/08 08:07:56;;;;;;;;;;;;;;;21.04;49.55;99250.50;7248256;19;153703;-57
2023/01/08 08:10:22;;;;;;;;;;;;;;;21.06;49.34;99248.19;7252917;19;153512;-57
2023/01/08 08:12:49;;;;;;;;;;;;;;;21.10;49.21;99248.28;7251962;19;154274;-58
2023/01/08 08:15:16;;;;;;;;;;;;;;;21.12;49.45;99254.38;7250661;19;153518;-58
2023/01/08 08:17:44;;;;;;;;;;;;;;;21.14;49.40;99255.69;7259029;19;153070;-57
2023/01/08 08:20:11;;;;;;;;;;;;;;;21.16;49.16;99258.16;7249329;19;154150;-58
2023/01/08 08:22:37;;;;;;;;;;;;;;;21.17;49.12;99243.72;7247082;19;153692;-57
2023/01/08 08:25:04;;;;;;;;;;;;;;;21.20;49.22;99239.41;7252201;19;154300;-57
2023/01/08 08:27:31;;;;;;;;;;;;;;;21.22;48.68;99237.06;7256208;19;154928;-57
2023/01/08 08:29:57;;;;;;;;;;;;;;;21.23;48.76;99233.06;7258320;19;154250;-57
2023/01/08 08:32:24;;;;;;;;;;;;;;;21.24;48.77;99226.28;7257608;19;154306;-57
2023/01/08 08:34:51;;;;;;;;;;;;;;;21.25;48.87;99239.19;7256160;19;154444;-57
2023/01/08 08:37:17;;;;;;;;;;;;;;;21.26;48.45;99232.34;7256117;19;153430;-57
2023/01/08 08:39:44;;;;;;;;;;;;;;;21.27;48.53;99228.38;7263650;19;153900;-57
2023/01/08 08:42:11;;;;;;;;;;;;;;;21.28;48.67;99221.59;7257235;19;153707;-57
2023/01/08 08:44:37;;;;;;;;;;;;;;;21.30;48.53;99220.06;7257903;19;153341;-57
2023/01/08 08:47:08;;;;;;;;;;;;;;;21.31;48.46;99220.88;7257416;19;154549;-57
2023/01/08 08:49:35;;;;;;;;;;;;;;;21.32;48.41;99219.72;7258526;19;153430;-58
2023/01/08 08:52:03;;;;;;;;;;;;;;;21.34;48.34;99210.94;7253419;19;153176;-58
2023/01/08 08:54:29;;;;;;;;;;;;;;;21.33;48.53;99212.09;7254588;19;153513;-58
2023/01/08 08:56:56;;;;;;;;;;;;;;;21.33;48.48;99215.72;7254623;19;153882;-58
2023/01/08 08:59:23;;;;;;;;;;;;;;;21.35;48.31;99215.38;7256441;19;154149;-58
2023/01/08 09:01:50;;;;;;;;;;;;;;;21.36;48.44;99205.75;7261085;19;154698;-58
2023/01/08 09:04:17;;;;;;;;;;;;;;;21.35;48.61;99202.13;7255213;19;156991;-58
2023/01/08 09:06:43;;;;;;;;;;;;;;;21.35;48.57;99199.31;7252789;19;154491;-58
2023/01/08 09:09:10;;;;;;;;;;;;;;;21.36;48.73;99202.94;7254949;19;154047;-58
2023/01/08 09:11:37;;;;;;;;;;;;;;;21.36;48.72;99202.94;7257243;19;153627;-58
2023/01/08 09:14:03;;;;;;;;;;;;;;;21.37;48.31;99202.59;7251059;19;154749;-58
2023/01/08 09:16:31;;;;;;;;;;;;;;;21.36;48.54;99186.09;7256460;19;153935;-58
2023/01/08 09:18:58;;;;;;;;;;;;;;;21.35;48.56;99181.69;7256678;19;153562;-58
2023/01/08 09:21:25;;;;;;;;;;;;;;;21.33;48.30;99173.59;7251527;19;154350;-58
2023/01/08 09:23:51;;;;;;;;;;;;;;;21.32;48.60;99163.53;7262159;19;153287;-58
2023/01/08 09:26:18;;;;;;;;;;;;;;;21.29;48.83;99161.44;7254791;19;153989;-58
2023/01/08 09:28:45;;;;;;;;;;;;;;;21.26;48.77;99162.13;7255682;19;154199;-57
2023/01/08 09:31:12;;;;;;;;;;;;;;;21.24;48.68;99153.25;7257039;19;153313;-58
2023/01/08 09:33:38;;;;;;;;;;;;;;;21.22;49.22;99152.78;7254803;19;156829;-58
2023/01/08 09:36:09;;;;;;;;;;;;;;;21.19;48.88;99151.53;7254789;19;152315;-58
2023/01/08 09:38:35;;;;;;;;;;;;;;;21.18;49.39;99152.69;7253305;19;153961;-58
2023/01/08 09:41:08;;;;;;;;;;;;;;;21.15;49.28;99146.97;7251539;19;156112;-58
2023/01/08 09:43:36;;;;;;;;;;;;;;;21.11;49.20;99143.22;7252810;19;154100;-58
2023/01/08 09:46:04;;;;;;;;;;;;;;;21.08;49.33;99152.34;7262894;19;154144;-58
2023/01/08 09:48:34;;;;;;;;;;;;;;;21.05;49.42;99153.06;7256090;19;154284;-58
2023/01/08 09:51:01;;;;;;;;;;;;;;;21.01;49.51;99147.34;7254403;19;154408;-58
2023/01/08 09:53:28;;;;;;;;;;;;;;;20.99;49.38;99143.25;7252244;19;153627;-59
2023/01/08 09:55:57;;;;;;;;;;;;;;;20.97;49.43;99139.97;7251460;19;154030;-58
2023/01/08 09:58:40;;;;;;;;;;;;;;;20.96;49.56;99141.97;7254866;19;154194;-58
2023/01/08 10:01:10;;;;;;;;;;;;;;;20.92;49.42;99138.25;7254369;19;154270;-57
2023/01/08 10:03:46;;;;;;;;;;;;;;;20.89;49.45;99133.34;7253300;19;153978;-57
2023/01/08 10:06:14;;;;;;;;;;;;;;;20.87;49.79;99132.88;7250448;19;151990;-57
2023/01/08 10:08:41;;;;;;;;;;;;;;;20.84;49.41;99127.97;7260800;19;153834;-57
2023/01/08 10:11:08;;;;;;;;;;;;;;;20.82;49.38;99135.91;7253684;19;153767;-58
2023/01/08 10:13:38;;;;;;;;;;;;;;;20.80;49.67;99139.06;7250423;19;154828;-58
2023/01/08 10:16:06;;;;;;;;;;;;;;;20.78;49.75;99132.19;7255682;19;153838;-58
2023/01/08 10:18:33;;;;;;;;;;;;;;;20.75;49.58;99136.53;7258491;19;153961;-57
2023/01/08 10:21:00;;;;;;;;;;;;;;;20.74;49.61;99123.66;7251818;19;153770;-58
2023/01/08 10:23:27;;;;;;;;;;;;;;;20.73;49.34;99124.84;7256973;19;153924;-58
2023/01/08 10:25:58;;;;;;;;;;;;;;;20.71;49.54;99121.59;7253661;19;153245;-58
2023/01/08 10:28:26;;;;;;;;;;;;;;;20.69;49.15;99121.09;7259080;19;153825;-58
2023/01/08 10:30:57;;;;;;;;;;;;;;;20.67;49.23;99108.63;7254116;19;154953;-59
2023/01/08 10:33:28;;;;;;;;;;;;;;;20.66;49.28;99112.59;7255510;19;154627;-58
2023/01/08 10:35:59;;;;;;;;;;;;;;;20.64;48.99;99109.31;7252009;19;154004;-58
2023/01/08 10:38:29;;;;;;;;;;;;;;;20.62;48.90;99106.88;7254303;19;153923;-58
2023/01/08 10:41:02;;;;;;;;;;;;;;;20.59;49.22;99101.94;7252563;19;154655;-57
2023/01/08 10:43:32;;;;;;;;;;;;;;;20.58;49.35;99100.31;7252547;19;153551;-58
2023/01/08 10:46:02;;;;;;;;;;;;;;;20.56;48.86;99097.06;7254052;19;154334;-58
2023/01/08 10:48:38;;;;;;;;;;;;;;;20.54;49.24;99090.97;7250062;19;152598;-58
2023/01/08 10:51:11;;;;;;;;;;;;;;;20.51;48.79;99068.41;7260717;19;154648;-57
2023/01/08 10:53:40;;;;;;;;;;;;;;;20.49;48.97;99070.78;7248825;19;154316;-57
2023/01/08 10:56:17;;;;;;;;;;;;;;;20.46;49.19;99069.47;7251760;19;154468;-57
2023/01/08 10:58:43;;;;;;;;;;;;;;;20.43;48.87;99061.78;7252345;19;154440;-58
2023/01/08 11:01:11;;;;;;;;;;;;;;;20.39;48.99;99058.88;7252114;19;154765;-57
2023/01/08 11:03:39;;;;;;;;;;;;;;;20.36;49.03;99067.97;7253862;19;154032;-57
2023/01/08 11:06:10;;;;;;;;;;;;;;;20.34;49.46;99058.28;7247608;19;155927;-58
2023/01/08 11:08:37;;;;;;;;;;;;;;;20.34;49.65;99052.69;7250455;19;155107;-57
2023/01/08 11:11:12;;;;;;;;;;;;;;;20.31;49.65;99050.56;7285562;19;153792;-56
2023/01/08 11:13:39;;;;;;;;;;;;;;;20.31;49.84;99039.34;7286644;19;153399;-57
2023/01/08 11:16:09;;;;;;;;;;;;;;;20.29;49.43;99044.47;7283917;19;153248;-57
2023/01/08 11:18:44;;;;;;;;;;;;;;;20.29;49.85;99028.47;7284486;19;154351;-58
2023/01/08 11:21:21;;;;;;;;;;;;;;;20.26;48.55;99022.75;7281741;19;153457;-59
2023/01/08 11:24:00;;;;;;;;;;;;;;;20.24;47.87;99008.25;7287234;19;154741;-58
2023/01/08 11:26:28;;;;;;;;;;;;;;;19.84;45.72;99009.00;7284894;19;154404;-58
2023/01/08 11:28:55;;;;;;;;;;;;;;;19.76;46.38;99012.72;7283193;19;154096;-57
2023/01/08 11:31:32;;;;;;;;;;;;;;;19.83;46.93;99012.16;7295560;19;152158;-57
2023/01/08 11:34:05;;;;;;;;;;;;;;;19.90;47.23;99001.97;7285655;19;155796;-57
2023/01/08 11:36:33;;;;;;;;;;;;;;;19.99;47.46;99002.69;7285173;19;152601;-57
2023/01/08 11:39:01;;;;;;;;;;;;;;;20.06;47.67;99001.28;7284768;19;153299;-57
2023/01/08 11:41:28;;;;;;;;;;;;;;;20.12;48.19;98983.88;7284850;19;153960;-57
2023/01/08 11:44:05;;;;;;;;;;;;;;;20.18;48.00;98985.25;7287189;19;152406;-57
2023/01/08 11:46:38;;;;;;;;;;;;;;;20.23;48.73;98979.38;7285523;19;152509;-58
2023/01/08 11:49:15;;;;;;;;;;;;;;;20.28;49.08;98976.34;7286357;19;154708;-58
2023/01/08 11:51:53;;;;;;;;;;;;;;;20.33;49.00;98966.91;7282844;19;154072;-58
2023/01/08 11:54:23;;;;;;;;;;;;;;;20.38;49.45;98949.81;7292191;19;153835;-57
2023/01/08 11:57:00;;;;;;;;;;;;;;;20.43;49.85;98963.59;7286225;19;152760;-57
2023/01/08 11:59:35;;;;;;;;;;;;;;;20.50;50.04;98958.19;7283008;19;153776;-58
2023/01/08 12:02:14;;;;;;;;;;;;;;;20.57;50.63;98954.78;7282590;19;154817;-58
2023/01/08 12:04:51;;;;;;;;;;;;;;;20.58;49.68;98943.19;7269819;19;153322;-58
2023/01/08 12:07:24;;;;;;;;;;;;;;;20.63;48.94;98948.53;7277917;19;153346;-58
2023/01/08 12:10:01;;;;;;;;;;;;;;;20.66;48.54;98935.78;7279475;19;154503;-58
2023/01/08 12:12:29;;;;;;;;;;;;;;;20.69;48.33;98927.47;7281530;19;153269;-59
2023/01/08 12:15:05;;;;;;;;;;;;;;;20.72;48.02;98926.75;7282988;19;153577;-58
2023/01/08 12:17:42;;;;;;;;;;;;;;;20.74;47.43;98921.59;7290182;19;153154;-58
2023/01/08 12:20:20;;;;;;;;;;;;;;;20.78;47.34;98924.50;7280688;19;152090;-58
2023/01/08 12:22:54;;;;;;;;;;;;;;;20.81;47.26;98943.41;7251072;19;153581;-58
2023/01/08 12:25:31;;;;;;;;;;;;;;;20.83;46.95;98947.50;7253770;19;153689;-58
2023/01/08 12:28:04;;;;;;;;;;;;;;;20.84;46.56;98949.16;7256612;19;153053;-57
2023/01/08 12:30:41;;;;;;;;;;;;;;;20.86;46.16;98915.09;7253828;19;153345;-57
2023/01/08 12:33:11;;;;;;;;;;;;;;;20.89;46.54;98920.00;7255873;19;152173;-57
2023/01/08 12:35:40;;;;;;;;;;;;;;;20.92;46.51;98901.59;7253169;19;154518;-58
2023/01/08 12:38:12;;;;;;;;;;;;;;;20.94;46.05;98914.09;7250459;19;154534;-57
2023/01/08 12:40:45;;;;;;;;;;;;;;;20.76;43.89;98899.59;7260044;19;153900;-58